sensor_id;sensor_type;location;lat;lon;timestamp;P1;durP1;ratioP1;P2;durP2;ratioP2
75932;SDS011;64803;52.356;5.310;2023-02-28T00:01:11;7.22;;;1.27;;
75932;SDS011;64803;52.356;5.310;2023-02-28T00:06:05;3.80;;;1.05;;
75932;SDS011;64803;52.356;5.310;2023-02-28T00:08:32;3.95;;;1.23;;
75932;SDS011;64803;52.356;5.310;2023-02-28T00:11:05;5.63;;;1.30;;
75932;SDS011;64803;52.356;5.310;2023-02-28T00:13:34;5.93;;;1.20;;
75932;SDS011;64803;52.356;5.310;2023-02-28T00:16:05;4.20;;;1.25;;
75932;SDS011;64803;52.356;5.310;2023-02-28T00:18:35;6.20;;;1.05;;
75932;SDS011;64803;52.356;5.310;2023-02-28T00:21:04;7.55;;;1.40;;
75932;SDS011;64803;52.356;5.310;2023-02-28T00:23:31;4.30;;;1.38;;
75932;SDS011;64803;52.356;5.310;2023-02-28T00:25:57;5.70;;;1.48;;
75932;SDS011;64803;52.356;5.310;2023-02-28T00:28:24;4.43;;;1.42;;
75932;SDS011;64803;52.356;5.310;2023-02-28T00:30:50;5.80;;;1.70;;
75932;SDS011;64803;52.356;5.310;2023-02-28T00:33:16;2.80;;;1.00;;
75932;SDS011;64803;52.356;5.310;2023-02-28T00:35:42;3.75;;;1.20;;
75932;SDS011;64803;52.356;5.310;2023-02-28T00:38:12;4.85;;;1.20;;
75932;SDS011;64803;52.356;5.310;2023-02-28T00:40:39;4.78;;;1.40;;
75932;SDS011;64803;52.356;5.310;2023-02-28T00:43:05;4.20;;;1.27;;
75932;SDS011;64803;52.356;5.310;2023-02-28T00:45:31;6.85;;;1.58;;
75932;SDS011;64803;52.356;5.310;2023-02-28T00:47:57;2.10;;;0.68;;
75932;SDS011;64803;52.356;5.310;2023-02-28T00:50:23;7.15;;;1.60;;
75932;SDS011;64803;52.356;5.310;2023-02-28T00:52:49;3.05;;;0.90;;
75932;SDS011;64803;52.356;5.310;2023-02-28T00:55:15;5.47;;;1.40;;
75932;SDS011;64803;52.356;5.310;2023-02-28T00:57:41;3.72;;;1.30;;
75932;SDS011;64803;52.356;5.310;2023-02-28T01:00:07;5.63;;;1.60;;
75932;SDS011;64803;52.356;5.310;2023-02-28T01:02:34;4.35;;;1.50;;
75932;SDS011;64803;52.356;5.310;2023-02-28T01:05:00;3.50;;;1.00;;
75932;SDS011;64803;52.356;5.310;2023-02-28T01:07:29;8.02;;;1.77;;
75932;SDS011;64803;52.356;5.310;2023-02-28T01:09:55;7.85;;;1.77;;
75932;SDS011;64803;52.356;5.310;2023-02-28T01:12:21;6.07;;;1.70;;
75932;SDS011;64803;52.356;5.310;2023-02-28T01:14:47;6.30;;;1.73;;
75932;SDS011;64803;52.356;5.310;2023-02-28T01:17:13;8.32;;;2.05;;
75932;SDS011;64803;52.356;5.310;2023-02-28T01:19:39;7.65;;;2.08;;
75932;SDS011;64803;52.356;5.310;2023-02-28T01:22:05;8.40;;;1.90;;
75932;SDS011;64803;52.356;5.310;2023-02-28T01:24:32;7.82;;;1.88;;
75932;SDS011;64803;52.356;5.310;2023-02-28T01:26:58;9.25;;;2.10;;
75932;SDS011;64803;52.356;5.310;2023-02-28T01:29:24;5.80;;;1.88;;
75932;SDS011;64803;52.356;5.310;2023-02-28T01:31:52;6.72;;;1.95;;
75932;SDS011;64803;52.356;5.310;2023-02-28T01:34:18;5.35;;;1.70;;
75932;SDS011;64803;52.356;5.310;2023-02-28T01:36:45;5.47;;;1.73;;
75932;SDS011;64803;52.356;5.310;2023-02-28T01:39:11;6.30;;;1.75;;
75932;SDS011;64803;52.356;5.310;2023-02-28T01:41:38;6.18;;;2.08;;
75932;SDS011;64803;52.356;5.310;2023-02-28T01:44:53;8.60;;;2.03;;
75932;SDS011;64803;52.356;5.310;2023-02-28T01:47:11;5.30;;;2.20;;
75932;SDS011;64803;52.356;5.310;2023-02-28T01:49:37;6.13;;;2.00;;
75932;SDS011;64803;52.356;5.310;2023-02-28T01:52:03;8.52;;;1.98;;
75932;SDS011;64803;52.356;5.310;2023-02-28T01:54:30;8.32;;;2.03;;
75932;SDS011;64803;52.356;5.310;2023-02-28T01:57:01;6.32;;;2.20;;
75932;SDS011;64803;52.356;5.310;2023-02-28T01:59:34;6.32;;;2.10;;
75932;SDS011;64803;52.356;5.310;2023-02-28T02:02:06;9.32;;;2.13;;
75932;SDS011;64803;52.356;5.310;2023-02-28T02:04:34;8.18;;;2.05;;
75932;SDS011;64803;52.356;5.310;2023-02-28T02:07:05;5.78;;;1.75;;
75932;SDS011;64803;52.356;5.310;2023-02-28T02:09:32;7.30;;;2.05;;
75932;SDS011;64803;52.356;5.310;2023-02-28T02:11:58;6.85;;;2.05;;
75932;SDS011;64803;52.356;5.310;2023-02-28T02:14:39;8.52;;;2.13;;
75932;SDS011;64803;52.356;5.310;2023-02-28T02:17:34;9.05;;;2.03;;
75932;SDS011;64803;52.356;5.310;2023-02-28T02:25:57;6.40;;;1.95;;
75932;SDS011;64803;52.356;5.310;2023-02-28T02:35:01;6.93;;;2.10;;
75932;SDS011;64803;52.356;5.310;2023-02-28T02:40:47;6.13;;;1.90;;
75932;SDS011;64803;52.356;5.310;2023-02-28T02:43:24;4.65;;;1.80;;
75932;SDS011;64803;52.356;5.310;2023-02-28T02:46:15;5.82;;;1.75;;
75932;SDS011;64803;52.356;5.310;2023-02-28T02:48:45;8.32;;;1.88;;
75932;SDS011;64803;52.356;5.310;2023-02-28T02:51:14;8.50;;;2.20;;
75932;SDS011;64803;52.356;5.310;2023-02-28T02:53:53;7.15;;;2.10;;
75932;SDS011;64803;52.356;5.310;2023-02-28T02:56:24;6.88;;;2.33;;
75932;SDS011;64803;52.356;5.310;2023-02-28T02:58:53;5.30;;;2.17;;
75932;SDS011;64803;52.356;5.310;2023-02-28T03:01:23;7.53;;;2.22;;
75932;SDS011;64803;52.356;5.310;2023-02-28T03:03:58;8.20;;;2.25;;
75932;SDS011;64803;52.356;5.310;2023-02-28T03:06:28;7.35;;;2.40;;
75932;SDS011;64803;52.356;5.310;2023-02-28T03:08:54;6.57;;;2.30;;
75932;SDS011;64803;52.356;5.310;2023-02-28T03:11:22;7.05;;;2.00;;
75932;SDS011;64803;52.356;5.310;2023-02-28T03:16:32;5.25;;;2.13;;
75932;SDS011;64803;52.356;5.310;2023-02-28T03:19:25;6.03;;;2.35;;
75932;SDS011;64803;52.356;5.310;2023-02-28T03:22:35;5.32;;;2.25;;
75932;SDS011;64803;52.356;5.310;2023-02-28T03:30:29;14.25;;;2.65;;
75932;SDS011;64803;52.356;5.310;2023-02-28T03:35:29;8.15;;;2.92;;
75932;SDS011;64803;52.356;5.310;2023-02-28T03:38:01;7.95;;;2.22;;
75932;SDS011;64803;52.356;5.310;2023-02-28T03:43:00;10.50;;;3.10;;
75932;SDS011;64803;52.356;5.310;2023-02-28T03:45:32;8.35;;;2.75;;
75932;SDS011;64803;52.356;5.310;2023-02-28T03:48:38;7.75;;;2.40;;
75932;SDS011;64803;52.356;5.310;2023-02-28T03:50:59;7.90;;;2.72;;
75932;SDS011;64803;52.356;5.310;2023-02-28T03:53:30;9.75;;;2.72;;
75932;SDS011;64803;52.356;5.310;2023-02-28T03:56:05;13.32;;;3.67;;
75932;SDS011;64803;52.356;5.310;2023-02-28T04:01:42;8.38;;;2.75;;
75932;SDS011;64803;52.356;5.310;2023-02-28T04:04:10;9.00;;;3.03;;
75932;SDS011;64803;52.356;5.310;2023-02-28T04:06:37;10.00;;;3.45;;
75932;SDS011;64803;52.356;5.310;2023-02-28T04:09:05;11.77;;;3.85;;
75932;SDS011;64803;52.356;5.310;2023-02-28T04:11:33;9.00;;;3.95;;
75932;SDS011;64803;52.356;5.310;2023-02-28T04:14:02;13.48;;;3.33;;
75932;SDS011;64803;52.356;5.310;2023-02-28T04:16:30;6.63;;;3.50;;
75932;SDS011;64803;52.356;5.310;2023-02-28T04:18:57;10.15;;;3.35;;
75932;SDS011;64803;52.356;5.310;2023-02-28T04:21:28;9.60;;;3.50;;
75932;SDS011;64803;52.356;5.310;2023-02-28T04:23:58;13.55;;;3.50;;
75932;SDS011;64803;52.356;5.310;2023-02-28T04:26:29;9.50;;;3.72;;
75932;SDS011;64803;52.356;5.310;2023-02-28T04:28:59;9.43;;;3.67;;
75932;SDS011;64803;52.356;5.310;2023-02-28T04:31:26;15.60;;;4.18;;
75932;SDS011;64803;52.356;5.310;2023-02-28T04:33:52;12.80;;;4.10;;
75932;SDS011;64803;52.356;5.310;2023-02-28T04:36:18;12.32;;;4.15;;
75932;SDS011;64803;52.356;5.310;2023-02-28T04:38:44;10.98;;;3.38;;
75932;SDS011;64803;52.356;5.310;2023-02-28T04:41:11;14.15;;;4.35;;
75932;SDS011;64803;52.356;5.310;2023-02-28T04:43:38;10.75;;;3.95;;
75932;SDS011;64803;52.356;5.310;2023-02-28T04:46:04;10.23;;;4.47;;
75932;SDS011;64803;52.356;5.310;2023-02-28T04:48:32;11.73;;;4.55;;
75932;SDS011;64803;52.356;5.310;2023-02-28T04:51:04;11.30;;;4.82;;
75932;SDS011;64803;52.356;5.310;2023-02-28T04:53:31;10.13;;;4.88;;
75932;SDS011;64803;52.356;5.310;2023-02-28T04:55:58;14.15;;;5.20;;
75932;SDS011;64803;52.356;5.310;2023-02-28T04:58:24;11.57;;;4.85;;
75932;SDS011;64803;52.356;5.310;2023-02-28T05:00:51;12.30;;;5.10;;
75932;SDS011;64803;52.356;5.310;2023-02-28T05:03:18;12.43;;;5.20;;
75932;SDS011;64803;52.356;5.310;2023-02-28T05:05:46;15.13;;;6.07;;
75932;SDS011;64803;52.356;5.310;2023-02-28T05:08:12;16.35;;;5.75;;
75932;SDS011;64803;52.356;5.310;2023-02-28T05:10:38;18.13;;;6.28;;
75932;SDS011;64803;52.356;5.310;2023-02-28T05:13:05;18.67;;;7.00;;
75932;SDS011;64803;52.356;5.310;2023-02-28T05:15:31;20.73;;;7.18;;
75932;SDS011;64803;52.356;5.310;2023-02-28T05:17:57;15.68;;;6.55;;
75932;SDS011;64803;52.356;5.310;2023-02-28T05:20:23;18.17;;;7.15;;
75932;SDS011;64803;52.356;5.310;2023-02-28T05:22:49;16.55;;;6.40;;
75932;SDS011;64803;52.356;5.310;2023-02-28T05:25:16;19.60;;;7.53;;
75932;SDS011;64803;52.356;5.310;2023-02-28T05:27:44;21.10;;;8.02;;
75932;SDS011;64803;52.356;5.310;2023-02-28T05:30:10;19.63;;;7.32;;
75932;SDS011;64803;52.356;5.310;2023-02-28T05:32:37;19.17;;;7.93;;
75932;SDS011;64803;52.356;5.310;2023-02-28T05:35:04;20.10;;;7.18;;
75932;SDS011;64803;52.356;5.310;2023-02-28T05:37:30;18.58;;;8.07;;
75932;SDS011;64803;52.356;5.310;2023-02-28T05:39:56;21.23;;;8.02;;
75932;SDS011;64803;52.356;5.310;2023-02-28T05:42:22;21.40;;;8.35;;
75932;SDS011;64803;52.356;5.310;2023-02-28T05:44:48;19.42;;;7.93;;
75932;SDS011;64803;52.356;5.310;2023-02-28T05:47:14;13.52;;;5.95;;
75932;SDS011;64803;52.356;5.310;2023-02-28T05:49:41;15.30;;;4.60;;
75932;SDS011;64803;52.356;5.310;2023-02-28T05:52:07;10.20;;;3.75;;
75932;SDS011;64803;52.356;5.310;2023-02-28T05:54:33;7.78;;;3.22;;
75932;SDS011;64803;52.356;5.310;2023-02-28T05:56:59;10.55;;;3.65;;
75932;SDS011;64803;52.356;5.310;2023-02-28T05:59:25;8.52;;;3.50;;
75932;SDS011;64803;52.356;5.310;2023-02-28T06:01:51;9.95;;;3.30;;
75932;SDS011;64803;52.356;5.310;2023-02-28T06:04:19;10.40;;;2.80;;
75932;SDS011;64803;52.356;5.310;2023-02-28T06:06:46;10.18;;;2.55;;
75932;SDS011;64803;52.356;5.310;2023-02-28T06:09:14;6.32;;;2.60;;
75932;SDS011;64803;52.356;5.310;2023-02-28T06:11:41;10.13;;;2.63;;
75932;SDS011;64803;52.356;5.310;2023-02-28T06:14:09;7.00;;;2.83;;
75932;SDS011;64803;52.356;5.310;2023-02-28T06:16:40;7.47;;;2.60;;
75932;SDS011;64803;52.356;5.310;2023-02-28T06:19:06;15.30;;;3.47;;
75932;SDS011;64803;52.356;5.310;2023-02-28T06:21:32;5.47;;;2.58;;
75932;SDS011;64803;52.356;5.310;2023-02-28T06:23:58;6.40;;;2.60;;
75932;SDS011;64803;52.356;5.310;2023-02-28T06:26:25;7.40;;;3.15;;
75932;SDS011;64803;52.356;5.310;2023-02-28T06:28:51;9.00;;;3.08;;
75932;SDS011;64803;52.356;5.310;2023-02-28T06:31:17;7.97;;;2.70;;
75932;SDS011;64803;52.356;5.310;2023-02-28T06:33:44;8.25;;;3.47;;
75932;SDS011;64803;52.356;5.310;2023-02-28T06:36:12;8.77;;;3.42;;
75932;SDS011;64803;52.356;5.310;2023-02-28T06:38:39;7.15;;;3.08;;
75932;SDS011;64803;52.356;5.310;2023-02-28T06:41:06;6.80;;;3.03;;
75932;SDS011;64803;52.356;5.310;2023-02-28T06:43:35;7.30;;;3.40;;
75932;SDS011;64803;52.356;5.310;2023-02-28T06:46:04;11.32;;;4.13;;
75932;SDS011;64803;52.356;5.310;2023-02-28T06:48:32;8.50;;;3.65;;
75932;SDS011;64803;52.356;5.310;2023-02-28T06:51:08;6.93;;;3.42;;
75932;SDS011;64803;52.356;5.310;2023-02-28T06:53:36;9.48;;;4.18;;
75932;SDS011;64803;52.356;5.310;2023-02-28T06:56:03;8.07;;;3.55;;
75932;SDS011;64803;52.356;5.310;2023-02-28T06:58:33;8.18;;;4.20;;
75932;SDS011;64803;52.356;5.310;2023-02-28T07:01:00;8.10;;;3.47;;
75932;SDS011;64803;52.356;5.310;2023-02-28T07:03:27;10.23;;;3.50;;
75932;SDS011;64803;52.356;5.310;2023-02-28T07:05:53;8.43;;;3.80;;
75932;SDS011;64803;52.356;5.310;2023-02-28T07:08:25;8.23;;;3.78;;
75932;SDS011;64803;52.356;5.310;2023-02-28T07:10:53;9.40;;;4.22;;
75932;SDS011;64803;52.356;5.310;2023-02-28T07:13:20;7.93;;;3.65;;
75932;SDS011;64803;52.356;5.310;2023-02-28T07:15:54;12.30;;;3.78;;
75932;SDS011;64803;52.356;5.310;2023-02-28T07:18:20;9.25;;;3.50;;
75932;SDS011;64803;52.356;5.310;2023-02-28T07:20:46;9.40;;;3.42;;
75932;SDS011;64803;52.356;5.310;2023-02-28T07:23:12;9.65;;;4.18;;
75932;SDS011;64803;52.356;5.310;2023-02-28T07:25:38;8.07;;;3.65;;
75932;SDS011;64803;52.356;5.310;2023-02-28T07:28:05;9.60;;;4.22;;
75932;SDS011;64803;52.356;5.310;2023-02-28T07:30:31;7.63;;;3.97;;
75932;SDS011;64803;52.356;5.310;2023-02-28T07:32:56;9.93;;;4.72;;
75932;SDS011;64803;52.356;5.310;2023-02-28T07:35:22;9.00;;;4.20;;
75932;SDS011;64803;52.356;5.310;2023-02-28T07:37:49;10.82;;;4.68;;
75932;SDS011;64803;52.356;5.310;2023-02-28T07:40:15;7.70;;;3.65;;
75932;SDS011;64803;52.356;5.310;2023-02-28T07:45:10;7.85;;;3.63;;
75932;SDS011;64803;52.356;5.310;2023-02-28T07:47:40;7.88;;;2.85;;
75932;SDS011;64803;52.356;5.310;2023-02-28T07:50:08;8.95;;;3.80;;
75932;SDS011;64803;52.356;5.310;2023-02-28T07:52:37;13.30;;;4.97;;
75932;SDS011;64803;52.356;5.310;2023-02-28T07:55:04;17.58;;;7.05;;
75932;SDS011;64803;52.356;5.310;2023-02-28T07:57:31;13.80;;;5.30;;
75932;SDS011;64803;52.356;5.310;2023-02-28T07:59:58;9.15;;;4.22;;
75932;SDS011;64803;52.356;5.310;2023-02-28T08:02:24;9.13;;;4.28;;
75932;SDS011;64803;52.356;5.310;2023-02-28T08:04:50;10.73;;;4.55;;
75932;SDS011;64803;52.356;5.310;2023-02-28T08:07:16;11.38;;;5.22;;
75932;SDS011;64803;52.356;5.310;2023-02-28T08:09:43;12.52;;;5.15;;
75932;SDS011;64803;52.356;5.310;2023-02-28T08:12:10;19.35;;;6.80;;
75932;SDS011;64803;52.356;5.310;2023-02-28T08:14:37;11.60;;;5.22;;
75932;SDS011;64803;52.356;5.310;2023-02-28T08:17:03;21.00;;;6.93;;
75932;SDS011;64803;52.356;5.310;2023-02-28T08:19:30;16.08;;;6.55;;
75932;SDS011;64803;52.356;5.310;2023-02-28T08:21:56;11.10;;;5.18;;
75932;SDS011;64803;52.356;5.310;2023-02-28T08:24:23;16.95;;;6.63;;
75932;SDS011;64803;52.356;5.310;2023-02-28T08:26:49;12.45;;;6.68;;
75932;SDS011;64803;52.356;5.310;2023-02-28T08:29:15;14.10;;;6.85;;
75932;SDS011;64803;52.356;5.310;2023-02-28T08:31:42;15.82;;;6.57;;
75932;SDS011;64803;52.356;5.310;2023-02-28T08:34:09;13.70;;;5.22;;
75932;SDS011;64803;52.356;5.310;2023-02-28T08:36:37;10.18;;;5.35;;
75932;SDS011;64803;52.356;5.310;2023-02-28T08:39:03;10.13;;;4.60;;
75932;SDS011;64803;52.356;5.310;2023-02-28T08:41:29;11.75;;;5.28;;
75932;SDS011;64803;52.356;5.310;2023-02-28T08:43:56;10.77;;;5.03;;
75932;SDS011;64803;52.356;5.310;2023-02-28T08:46:22;10.30;;;5.00;;
75932;SDS011;64803;52.356;5.310;2023-02-28T08:48:50;9.85;;;4.85;;
75932;SDS011;64803;52.356;5.310;2023-02-28T08:51:21;10.30;;;5.25;;
75932;SDS011;64803;52.356;5.310;2023-02-28T08:53:52;11.02;;;5.25;;
75932;SDS011;64803;52.356;5.310;2023-02-28T08:56:19;10.15;;;5.18;;
75932;SDS011;64803;52.356;5.310;2023-02-28T08:58:46;12.57;;;4.80;;
75932;SDS011;64803;52.356;5.310;2023-02-28T09:01:14;12.57;;;4.93;;
75932;SDS011;64803;52.356;5.310;2023-02-28T09:03:41;18.52;;;4.90;;
75932;SDS011;64803;52.356;5.310;2023-02-28T09:06:08;10.20;;;4.72;;
75932;SDS011;64803;52.356;5.310;2023-02-28T09:08:35;10.25;;;4.07;;
75932;SDS011;64803;52.356;5.310;2023-02-28T09:11:02;9.75;;;5.07;;
75932;SDS011;64803;52.356;5.310;2023-02-28T09:13:28;11.07;;;4.82;;
75932;SDS011;64803;52.356;5.310;2023-02-28T09:15:59;12.32;;;5.65;;
75932;SDS011;64803;52.356;5.310;2023-02-28T09:18:29;9.90;;;4.60;;
75932;SDS011;64803;52.356;5.310;2023-02-28T09:20:55;8.63;;;3.60;;
75932;SDS011;64803;52.356;5.310;2023-02-28T09:23:23;8.38;;;4.05;;
75932;SDS011;64803;52.356;5.310;2023-02-28T09:25:53;8.60;;;4.50;;
75932;SDS011;64803;52.356;5.310;2023-02-28T09:28:20;9.23;;;3.53;;
75932;SDS011;64803;52.356;5.310;2023-02-28T09:30:51;9.77;;;4.18;;
75932;SDS011;64803;52.356;5.310;2023-02-28T09:33:18;8.73;;;4.05;;
75932;SDS011;64803;52.356;5.310;2023-02-28T09:35:50;11.35;;;4.00;;
75932;SDS011;64803;52.356;5.310;2023-02-28T09:38:22;9.27;;;4.20;;
75932;SDS011;64803;52.356;5.310;2023-02-28T09:40:50;8.57;;;4.13;;
75932;SDS011;64803;52.356;5.310;2023-02-28T09:43:17;9.50;;;3.72;;
75932;SDS011;64803;52.356;5.310;2023-02-28T09:45:48;8.57;;;3.95;;
75932;SDS011;64803;52.356;5.310;2023-02-28T09:48:25;8.30;;;4.28;;
75932;SDS011;64803;52.356;5.310;2023-02-28T09:51:04;9.52;;;4.03;;
75932;SDS011;64803;52.356;5.310;2023-02-28T09:53:37;9.40;;;3.58;;
75932;SDS011;64803;52.356;5.310;2023-02-28T09:58:50;7.88;;;3.55;;
75932;SDS011;64803;52.356;5.310;2023-02-28T10:07:06;5.47;;;2.38;;
75932;SDS011;64803;52.356;5.310;2023-02-28T10:09:45;9.02;;;2.45;;
75932;SDS011;64803;52.356;5.310;2023-02-28T10:12:15;6.72;;;2.25;;
75932;SDS011;64803;52.356;5.310;2023-02-28T10:14:44;7.60;;;2.33;;
75932;SDS011;64803;52.356;5.310;2023-02-28T10:17:16;6.07;;;2.03;;
75932;SDS011;64803;52.356;5.310;2023-02-28T10:20:00;6.35;;;2.00;;
75932;SDS011;64803;52.356;5.310;2023-02-28T10:22:34;6.95;;;2.10;;
75932;SDS011;64803;52.356;5.310;2023-02-28T10:25:19;6.90;;;2.55;;
75932;SDS011;64803;52.356;5.310;2023-02-28T10:27:48;5.72;;;2.10;;
75932;SDS011;64803;52.356;5.310;2023-02-28T10:32:44;10.60;;;1.90;;
75932;SDS011;64803;52.356;5.310;2023-02-28T10:35:16;6.05;;;2.55;;
75932;SDS011;64803;52.356;5.310;2023-02-28T10:37:47;4.47;;;1.90;;
75932;SDS011;64803;52.356;5.310;2023-02-28T10:42:54;5.20;;;2.25;;
75932;SDS011;64803;52.356;5.310;2023-02-28T10:45:25;6.93;;;2.33;;
75932;SDS011;64803;52.356;5.310;2023-02-28T10:47:55;7.45;;;2.13;;
75932;SDS011;64803;52.356;5.310;2023-02-28T10:50:26;7.60;;;2.83;;
75932;SDS011;64803;52.356;5.310;2023-02-28T10:53:05;4.88;;;2.13;;
75932;SDS011;64803;52.356;5.310;2023-02-28T10:55:40;4.97;;;2.13;;
75932;SDS011;64803;52.356;5.310;2023-02-28T10:58:22;4.95;;;1.98;;
75932;SDS011;64803;52.356;5.310;2023-02-28T11:00:53;5.82;;;2.05;;
75932;SDS011;64803;52.356;5.310;2023-02-28T11:03:24;6.22;;;2.40;;
75932;SDS011;64803;52.356;5.310;2023-02-28T11:05:58;4.97;;;1.98;;
75932;SDS011;64803;52.356;5.310;2023-02-28T11:08:24;5.65;;;2.10;;
75932;SDS011;64803;52.356;5.310;2023-02-28T11:10:55;6.30;;;2.45;;
75932;SDS011;64803;52.356;5.310;2023-02-28T11:13:28;5.85;;;2.05;;
75932;SDS011;64803;52.356;5.310;2023-02-28T11:15:59;5.72;;;1.90;;
75932;SDS011;64803;52.356;5.310;2023-02-28T11:18:30;4.43;;;1.67;;
75932;SDS011;64803;52.356;5.310;2023-02-28T11:21:05;5.75;;;2.00;;
75932;SDS011;64803;52.356;5.310;2023-02-28T11:23:32;5.20;;;1.70;;
75932;SDS011;64803;52.356;5.310;2023-02-28T11:26:02;6.00;;;1.80;;
75932;SDS011;64803;52.356;5.310;2023-02-28T11:28:34;3.97;;;1.50;;
75932;SDS011;64803;52.356;5.310;2023-02-28T11:33:41;7.93;;;1.92;;
75932;SDS011;64803;52.356;5.310;2023-02-28T11:36:25;4.93;;;1.60;;
75932;SDS011;64803;52.356;5.310;2023-02-28T11:38:55;4.22;;;1.52;;
75932;SDS011;64803;52.356;5.310;2023-02-28T11:41:33;3.53;;;1.48;;
75932;SDS011;64803;52.356;5.310;2023-02-28T11:44:20;4.45;;;1.13;;
75932;SDS011;64803;52.356;5.310;2023-02-28T11:46:58;3.83;;;1.30;;
75932;SDS011;64803;52.356;5.310;2023-02-28T11:49:38;3.97;;;1.27;;
75932;SDS011;64803;52.356;5.310;2023-02-28T12:15:13;5.47;;;1.20;;
75932;SDS011;64803;52.356;5.310;2023-02-28T12:17:55;4.10;;;1.50;;
75932;SDS011;64803;52.356;5.310;2023-02-28T12:25:54;4.60;;;1.35;;
75932;SDS011;64803;52.356;5.310;2023-02-28T12:28:24;4.07;;;1.35;;
75932;SDS011;64803;52.356;5.310;2023-02-28T12:30:56;2.47;;;1.00;;
75932;SDS011;64803;52.356;5.310;2023-02-28T12:33:29;4.75;;;1.50;;
75932;SDS011;64803;52.356;5.310;2023-02-28T12:36:01;4.22;;;1.40;;
75932;SDS011;64803;52.356;5.310;2023-02-28T12:38:43;3.80;;;1.70;;
75932;SDS011;64803;52.356;5.310;2023-02-28T12:41:29;3.40;;;1.00;;
75932;SDS011;64803;52.356;5.310;2023-02-28T12:44:03;4.53;;;1.70;;
75932;SDS011;64803;52.356;5.310;2023-02-28T12:46:35;4.40;;;1.33;;
75932;SDS011;64803;52.356;5.310;2023-02-28T12:49:10;3.60;;;1.30;;
75932;SDS011;64803;52.356;5.310;2023-02-28T12:51:51;4.80;;;1.27;;
75932;SDS011;64803;52.356;5.310;2023-02-28T12:59:46;3.38;;;0.98;;
75932;SDS011;64803;52.356;5.310;2023-02-28T13:07:41;4.53;;;1.55;;
75932;SDS011;64803;52.356;5.310;2023-02-28T13:10:12;3.67;;;1.10;;
75932;SDS011;64803;52.356;5.310;2023-02-28T13:12:53;3.47;;;1.38;;
75932;SDS011;64803;52.356;5.310;2023-02-28T13:20:25;1.10;;;0.57;;
75932;SDS011;64803;52.356;5.310;2023-02-28T13:22:55;3.67;;;1.30;;
75932;SDS011;64803;52.356;5.310;2023-02-28T13:27:54;3.80;;;1.40;;
75932;SDS011;64803;52.356;5.310;2023-02-28T13:33:36;4.38;;;1.50;;
75932;SDS011;64803;52.356;5.310;2023-02-28T13:46:28;3.47;;;1.10;;
75932;SDS011;64803;52.356;5.310;2023-02-28T13:48:54;3.08;;;1.00;;
75932;SDS011;64803;52.356;5.310;2023-02-28T13:54:13;3.85;;;1.20;;
75932;SDS011;64803;52.356;5.310;2023-02-28T13:56:57;3.35;;;0.85;;
75932;SDS011;64803;52.356;5.310;2023-02-28T14:02:41;4.88;;;1.23;;
75932;SDS011;64803;52.356;5.310;2023-02-28T14:05:27;2.60;;;0.88;;
75932;SDS011;64803;52.356;5.310;2023-02-28T14:07:58;5.97;;;1.40;;
75932;SDS011;64803;52.356;5.310;2023-02-28T14:10:31;3.33;;;1.23;;
75932;SDS011;64803;52.356;5.310;2023-02-28T14:16:21;4.78;;;1.63;;
75932;SDS011;64803;52.356;5.310;2023-02-28T14:18:57;4.43;;;1.33;;
75932;SDS011;64803;52.356;5.310;2023-02-28T14:21:31;4.50;;;1.73;;
75932;SDS011;64803;52.356;5.310;2023-02-28T14:31:37;6.18;;;1.70;;
75932;SDS011;64803;52.356;5.310;2023-02-28T14:34:37;4.20;;;1.40;;
75932;SDS011;64803;52.356;5.310;2023-02-28T14:37:15;4.60;;;1.48;;
75932;SDS011;64803;52.356;5.310;2023-02-28T14:39:45;4.72;;;1.58;;
75932;SDS011;64803;52.356;5.310;2023-02-28T14:42:27;3.50;;;1.40;;
75932;SDS011;64803;52.356;5.310;2023-02-28T14:44:55;3.72;;;1.48;;
75932;SDS011;64803;52.356;5.310;2023-02-28T14:47:26;3.35;;;1.00;;
75932;SDS011;64803;52.356;5.310;2023-02-28T14:49:56;1.80;;;0.75;;
75932;SDS011;64803;52.356;5.310;2023-02-28T14:52:24;3.63;;;1.25;;
75932;SDS011;64803;52.356;5.310;2023-02-28T14:54:55;7.93;;;1.83;;
75932;SDS011;64803;52.356;5.310;2023-02-28T14:57:25;2.83;;;1.17;;
75932;SDS011;64803;52.356;5.310;2023-02-28T15:00:28;4.97;;;1.88;;
75932;SDS011;64803;52.356;5.310;2023-02-28T15:02:48;5.97;;;1.80;;
75932;SDS011;64803;52.356;5.310;2023-02-28T15:07:46;3.70;;;1.42;;
75932;SDS011;64803;52.356;5.310;2023-02-28T15:13:05;2.40;;;1.00;;
75932;SDS011;64803;52.356;5.310;2023-02-28T15:15:38;5.22;;;1.85;;
75932;SDS011;64803;52.356;5.310;2023-02-28T15:20:58;2.95;;;1.23;;
75932;SDS011;64803;52.356;5.310;2023-02-28T15:23:27;29.50;;;1.65;;
75932;SDS011;64803;52.356;5.310;2023-02-28T15:25:55;4.72;;;1.95;;
75932;SDS011;64803;52.356;5.310;2023-02-28T15:28:21;3.78;;;1.40;;
75932;SDS011;64803;52.356;5.310;2023-02-28T15:30:57;3.67;;;1.60;;
75932;SDS011;64803;52.356;5.310;2023-02-28T15:33:29;3.75;;;1.90;;
75932;SDS011;64803;52.356;5.310;2023-02-28T15:36:04;6.70;;;1.60;;
75932;SDS011;64803;52.356;5.310;2023-02-28T15:38:33;4.50;;;1.80;;
75932;SDS011;64803;52.356;5.310;2023-02-28T15:41:01;3.47;;;1.40;;
75932;SDS011;64803;52.356;5.310;2023-02-28T15:43:37;4.45;;;1.70;;
75932;SDS011;64803;52.356;5.310;2023-02-28T15:46:08;3.95;;;1.02;;
75932;SDS011;64803;52.356;5.310;2023-02-28T15:48:38;4.78;;;1.60;;
75932;SDS011;64803;52.356;5.310;2023-02-28T15:51:16;4.45;;;1.33;;
75932;SDS011;64803;52.356;5.310;2023-02-28T15:53:50;4.65;;;1.77;;
75932;SDS011;64803;52.356;5.310;2023-02-28T15:56:22;5.18;;;1.65;;
75932;SDS011;64803;52.356;5.310;2023-02-28T15:58:54;3.55;;;1.50;;
75932;SDS011;64803;52.356;5.310;2023-02-28T16:01:26;3.03;;;1.00;;
75932;SDS011;64803;52.356;5.310;2023-02-28T16:03:57;3.78;;;1.67;;
75932;SDS011;64803;52.356;5.310;2023-02-28T16:09:12;4.15;;;1.60;;
75932;SDS011;64803;52.356;5.310;2023-02-28T16:11:49;4.53;;;1.60;;
75932;SDS011;64803;52.356;5.310;2023-02-28T16:14:19;5.05;;;1.45;;
75932;SDS011;64803;52.356;5.310;2023-02-28T16:16:49;4.65;;;1.17;;
75932;SDS011;64803;52.356;5.310;2023-02-28T16:19:17;3.25;;;1.20;;
75932;SDS011;64803;52.356;5.310;2023-02-28T16:21:44;4.72;;;1.60;;
75932;SDS011;64803;52.356;5.310;2023-02-28T16:24:11;5.80;;;2.25;;
75932;SDS011;64803;52.356;5.310;2023-02-28T16:26:37;4.00;;;1.13;;
75932;SDS011;64803;52.356;5.310;2023-02-28T16:29:06;7.80;;;2.55;;
75932;SDS011;64803;52.356;5.310;2023-02-28T16:31:34;4.65;;;1.60;;
75932;SDS011;64803;52.356;5.310;2023-02-28T16:34:02;3.85;;;1.63;;
75932;SDS011;64803;52.356;5.310;2023-02-28T16:36:29;5.35;;;1.98;;
75932;SDS011;64803;52.356;5.310;2023-02-28T16:38:55;5.72;;;2.20;;
75932;SDS011;64803;52.356;5.310;2023-02-28T16:41:24;6.45;;;1.85;;
75932;SDS011;64803;52.356;5.310;2023-02-28T16:43:53;8.05;;;2.63;;
75932;SDS011;64803;52.356;5.310;2023-02-28T16:46:24;6.15;;;2.20;;
75932;SDS011;64803;52.356;5.310;2023-02-28T16:48:55;4.82;;;1.70;;
75932;SDS011;64803;52.356;5.310;2023-02-28T16:51:22;6.15;;;1.98;;
75932;SDS011;64803;52.356;5.310;2023-02-28T16:53:48;4.68;;;1.70;;
75932;SDS011;64803;52.356;5.310;2023-02-28T16:56:15;4.80;;;1.50;;
75932;SDS011;64803;52.356;5.310;2023-02-28T16:58:49;4.07;;;1.80;;
75932;SDS011;64803;52.356;5.310;2023-02-28T17:01:17;4.70;;;1.60;;
75932;SDS011;64803;52.356;5.310;2023-02-28T17:03:47;5.75;;;2.25;;
75932;SDS011;64803;52.356;5.310;2023-02-28T17:06:21;4.15;;;1.48;;
75932;SDS011;64803;52.356;5.310;2023-02-28T17:08:50;4.43;;;1.80;;
75932;SDS011;64803;52.356;5.310;2023-02-28T17:11:17;4.53;;;1.95;;
75932;SDS011;64803;52.356;5.310;2023-02-28T17:13:44;7.82;;;2.35;;
75932;SDS011;64803;52.356;5.310;2023-02-28T17:16:24;4.70;;;2.38;;
75932;SDS011;64803;52.356;5.310;2023-02-28T17:18:54;3.72;;;1.42;;
75932;SDS011;64803;52.356;5.310;2023-02-28T17:21:23;5.00;;;2.10;;
75932;SDS011;64803;52.356;5.310;2023-02-28T17:23:49;3.63;;;1.50;;